Time;durP1;ratioP1;P1;durP2;ratioP2;P2;SDS_P1;SDS_P2;PMS_P1;PMS_P2;Temp;Humidity;BMP_temperature;BMP_pressure;BME280_temperature;BME280_humidity;BME280_pressure;Samples;Min_cycle;Max_cycle;Signal;HPM_P1;HPM_P2
2024/02/01 00:00:30;;;;;;;14.73;10.23;;;7.30;99.90;;;;;;4948670;28;20561;-83
2024/02/01 00:02:56;;;;;;;18.42;13.35;;;7.30;99.90;;;;;;4947352;28;20032;-84
2024/02/01 00:05:22;;;;;;;12.43;8.30;;;7.30;99.90;;;;;;4948380;28;20557;-85
2024/02/01 00:07:49;;;;;;;12.70;9.23;;;7.30;99.90;;;;;;4994461;28;20046;-85
2024/02/01 00:10:15;;;;;;;13.18;8.93;;;7.30;99.90;;;;;;4917714;28;20035;-84
2024/02/01 00:12:41;;;;;;;12.15;8.63;;;7.40;99.90;;;;;;4931548;28;20043;-83
2024/02/01 00:15:08;;;;;;;15.98;10.73;;;7.30;99.90;;;;;;4935368;28;20367;-85
2024/02/01 00:17:35;;;;;;;17.90;12.45;;;7.40;99.90;;;;;;4948619;28;20035;-86
2024/02/01 00:20:01;;;;;;;15.32;10.23;;;7.40;99.90;;;;;;4949513;28;20051;-85
2024/02/01 00:22:27;;;;;;;15.90;11.55;;;7.40;99.90;;;;;;4947543;28;20511;-85
2024/02/01 00:24:54;;;;;;;20.88;13.68;;;7.40;99.90;;;;;;4934995;28;20031;-86
2024/02/01 00:27:20;;;;;;;21.58;13.98;;;7.40;99.90;;;;;;4934474;28;20043;-85
2024/02/01 00:29:46;;;;;;;16.70;12.50;;;7.50;99.90;;;;;;4962704;28;20039;-86
2024/02/01 00:32:13;;;;;;;17.50;13.82;;;7.50;99.90;;;;;;4949982;28;20245;-85
2024/02/01 00:34:44;;;;;;;16.73;11.52;;;7.50;99.90;;;;;;4965596;28;20039;-86
2024/02/01 00:37:11;;;;;;;17.35;12.07;;;7.50;99.90;;;;;;4946842;28;20050;-85
2024/02/01 00:39:37;;;;;;;21.50;14.98;;;7.60;99.90;;;;;;4951140;28;20054;-85
2024/02/01 00:42:04;;;;;;;23.23;14.13;;;7.60;99.90;;;;;;4946590;28;20042;-84
2024/02/01 00:44:30;;;;;;;21.38;13.88;;;7.60;99.90;;;;;;4962067;28;20382;-85
2024/02/01 00:46:56;;;;;;;19.38;13.82;;;7.70;99.90;;;;;;4931575;28;20047;-83
2024/02/01 00:49:23;;;;;;;19.73;12.52;;;7.70;99.90;;;;;;4947436;28;20043;-83
2024/02/01 00:51:49;;;;;;;15.75;12.57;;;7.70;99.90;;;;;;4965522;28;20039;-84
2024/02/01 00:54:15;;;;;;;21.77;14.18;;;7.70;99.90;;;;;;4963865;28;20411;-84
2024/02/01 00:56:42;;;;;;;18.65;11.77;;;7.70;99.90;;;;;;4948666;28;20043;-84
2024/02/01 00:59:08;;;;;;;22.67;17.85;;;7.80;99.90;;;;;;4961761;28;20035;-86
2024/02/01 01:01:34;;;;;;;21.83;16.52;;;7.80;99.90;;;;;;4963454;28;20431;-86
2024/02/01 01:04:02;;;;;;;20.20;14.95;;;7.80;99.90;;;;;;4975292;28;20610;-84
2024/02/01 01:06:28;;;;;;;19.98;16.55;;;7.80;99.90;;;;;;4944328;28;20031;-84
2024/02/01 01:08:55;;;;;;;20.35;14.32;;;7.90;99.90;;;;;;4979735;28;20039;-84
2024/02/01 01:11:21;;;;;;;24.33;16.13;;;7.90;99.90;;;;;;4962582;28;20558;-83
2024/02/01 01:13:48;;;;;;;20.90;15.68;;;7.90;99.90;;;;;;4962185;28;20545;-84
2024/02/01 01:16:14;;;;;;;22.08;15.50;;;7.90;99.90;;;;;;4965329;28;20486;-84
2024/02/01 01:18:40;;;;;;;22.75;17.33;;;7.90;99.90;;;;;;4931318;28;20485;-84
2024/02/01 01:21:07;;;;;;;31.27;22.15;;;8.00;99.90;;;;;;4962665;28;20043;-84
2024/02/01 01:23:33;;;;;;;26.42;20.40;;;8.00;99.90;;;;;;4961049;28;20487;-83
2024/02/01 01:25:59;;;;;;;19.92;17.33;;;8.00;99.90;;;;;;4962180;28;20031;-83
2024/02/01 01:28:26;;;;;;;19.92;15.43;;;8.00;99.90;;;;;;4928879;28;20043;-83
2024/02/01 01:30:52;;;;;;;22.13;18.05;;;8.00;99.90;;;;;;4947166;28;20036;-84
2024/02/01 01:33:19;;;;;;;24.23;19.27;;;8.10;99.90;;;;;;4948235;28;20407;-83
2024/02/01 01:35:45;;;;;;;20.83;16.48;;;8.10;99.90;;;;;;4930026;28;20031;-83
2024/02/01 01:38:11;;;;;;;26.75;20.33;;;8.10;99.90;;;;;;4948277;28;20486;-83
2024/02/01 01:40:38;;;;;;;19.85;17.50;;;8.10;99.90;;;;;;4932274;28;20412;-84
2024/02/01 01:43:04;;;;;;;25.55;18.83;;;8.10;99.90;;;;;;4944176;28;20050;-84
2024/02/01 01:45:30;;;;;;;21.27;17.10;;;8.20;99.90;;;;;;4932864;28;20478;-85
2024/02/01 01:47:57;;;;;;;29.25;20.80;;;8.20;99.90;;;;;;4948544;28;20051;-82
2024/02/01 01:50:23;;;;;;;24.98;19.77;;;8.20;99.90;;;;;;4964965;28;20047;-83
2024/02/01 01:52:50;;;;;;;28.40;22.48;;;8.20;99.90;;;;;;4951192;28;20403;-83
2024/02/01 01:55:17;;;;;;;28.88;19.60;;;8.20;99.90;;;;;;4951477;28;20035;-84
2024/02/01 01:57:44;;;;;;;30.88;23.02;;;8.30;99.90;;;;;;4933783;28;20043;-84
2024/02/01 02:00:13;;;;;;;29.67;20.55;;;8.30;99.90;;;;;;4947760;28;20051;-83
2024/02/01 02:02:40;;;;;;;27.90;21.45;;;8.30;99.90;;;;;;4946236;28;20050;-85
2024/02/01 02:05:07;;;;;;;30.20;23.05;;;8.30;99.90;;;;;;4946274;28;20409;-84
2024/02/01 02:07:33;;;;;;;28.13;22.10;;;8.40;99.90;;;;;;4961962;28;20048;-83
2024/02/01 02:10:00;;;;;;;21.80;18.20;;;8.40;99.90;;;;;;4945643;28;20292;-85
2024/02/01 02:12:27;;;;;;;22.83;17.45;;;8.40;99.90;;;;;;4948166;28;20611;-84
2024/02/01 02:14:57;;;;;;;22.95;18.42;;;8.40;99.90;;;;;;4947596;28;20035;-84
2024/02/01 02:17:27;;;;;;;23.98;17.80;;;8.50;99.90;;;;;;4947467;28;20399;-82
2024/02/01 02:19:54;;;;;;;20.77;17.58;;;8.50;99.90;;;;;;4933828;28;20035;-85
2024/02/01 02:22:22;;;;;;;16.50;13.85;;;8.50;99.90;;;;;;4946727;28;20483;-86
2024/02/01 02:24:48;;;;;;;15.48;13.68;;;8.50;99.90;;;;;;4947292;28;21645;-85
2024/02/01 02:27:16;;;;;;;21.75;17.10;;;8.60;99.90;;;;;;4949634;28;20035;-84
2024/02/01 02:29:43;;;;;;;20.05;16.52;;;8.60;99.90;;;;;;4963590;28;20396;-84
2024/02/01 02:32:09;;;;;;;17.35;15.20;;;8.60;99.90;;;;;;4967580;28;20402;-84
2024/02/01 02:34:35;;;;;;;20.60;17.55;;;8.60;99.90;;;;;;4949302;28;20498;-83
2024/02/01 02:37:02;;;;;;;24.30;18.52;;;8.60;99.90;;;;;;4948952;28;20051;-84
2024/02/01 02:39:28;;;;;;;24.73;18.63;;;8.70;99.90;;;;;;4965543;28;20411;-82
2024/02/01 02:41:55;;;;;;;27.58;19.08;;;8.70;99.90;;;;;;4931897;28;20031;-84
2024/02/01 02:44:21;;;;;;;22.58;18.40;;;8.70;99.90;;;;;;4948073;28;20502;-84
2024/02/01 02:46:47;;;;;;;24.73;17.98;;;8.70;99.90;;;;;;4963439;28;20039;-84
2024/02/01 02:49:14;;;;;;;26.77;20.15;;;8.70;99.90;;;;;;4946377;28;20035;-84
2024/02/01 02:51:40;;;;;;;28.65;20.35;;;8.70;99.90;;;;;;4964496;28;20043;-84
2024/02/01 02:54:06;;;;;;;26.08;18.88;;;8.80;99.90;;;;;;4932859;28;20046;-82
2024/02/01 02:56:33;;;;;;;29.63;19.92;;;8.80;99.90;;;;;;4961776;28;20708;-85
2024/02/01 02:58:59;;;;;;;35.88;22.67;;;8.80;99.90;;;;;;4947360;28;20039;-84
2024/02/01 03:01:26;;;;;;;30.23;18.23;;;8.80;99.90;;;;;;4932869;28;20039;-84
2024/02/01 03:03:52;;;;;;;31.65;19.70;;;8.80;99.90;;;;;;4980865;28;20085;-85
2024/02/01 03:06:18;;;;;;;33.85;19.05;;;8.90;99.90;;;;;;4930179;28;20036;-83
2024/02/01 03:08:45;;;;;;;29.48;16.58;;;8.90;99.90;;;;;;4948369;28;20043;-84
2024/02/01 03:11:11;;;;;;;28.42;17.17;;;8.90;99.90;;;;;;4931798;28;20062;-81
2024/02/01 03:13:45;;;;;;;20.83;15.43;;;8.90;99.90;;;;;;4964687;28;20039;-83
2024/02/01 03:16:19;;;;;;;24.67;14.30;;;8.90;99.90;;;;;;4932747;28;20042;-83
2024/02/01 03:18:46;;;;;;;31.02;17.48;;;8.90;99.90;;;;;;4949853;28;20043;-84
2024/02/01 03:21:13;;;;;;;37.42;18.42;;;8.90;99.90;;;;;;4947345;28;20039;-83
2024/02/01 03:23:42;;;;;;;40.17;16.98;;;8.90;99.90;;;;;;4965717;28;20043;-84
2024/02/01 03:26:10;;;;;;;33.60;14.05;;;8.90;99.90;;;;;;4947503;28;20035;-84
2024/02/01 03:28:41;;;;;;;30.42;13.35;;;8.90;99.90;;;;;;4962716;28;20046;-83
2024/02/01 03:31:07;;;;;;;26.50;11.05;;;8.90;99.90;;;;;;4962127;28;20043;-82
2024/02/01 03:33:38;;;;;;;32.47;9.63;;;8.90;99.90;;;;;;4948487;28;20042;-83
2024/02/01 03:36:09;;;;;;;23.92;8.73;;;8.80;99.90;;;;;;4963221;28;20040;-85
2024/02/01 03:38:36;;;;;;;20.95;7.63;;;8.70;99.90;;;;;;4949162;28;20521;-83
2024/02/01 03:41:04;;;;;;;16.33;6.10;;;8.70;99.90;;;;;;4962395;28;20508;-84
2024/02/01 03:43:30;;;;;;;16.80;5.97;;;8.60;99.90;;;;;;4944735;28;20031;-82
2024/02/01 03:45:57;;;;;;;20.83;5.60;;;8.50;99.90;;;;;;4946333;28;20077;-84
2024/02/01 03:48:24;;;;;;;19.38;5.15;;;8.40;99.90;;;;;;4963687;28;20039;-83
2024/02/01 03:50:51;;;;;;;22.38;5.05;;;8.40;99.90;;;;;;4945128;28;20503;-83
2024/02/01 03:53:18;;;;;;;15.80;4.68;;;8.30;99.90;;;;;;4964480;28;20405;-85
2024/02/01 03:55:48;;;;;;;19.52;5.10;;;8.20;99.90;;;;;;4952094;28;20048;-84
2024/02/01 03:58:18;;;;;;;11.60;3.17;;;8.10;99.90;;;;;;4969597;28;20457;-84
2024/02/01 04:00:47;;;;;;;16.92;4.15;;;8.10;99.90;;;;;;4983480;28;20533;-83
2024/02/01 04:03:14;;;;;;;18.60;4.25;;;8.00;99.90;;;;;;4949976;28;20036;-83
2024/02/01 04:05:42;;;;;;;16.38;3.53;;;8.00;99.90;;;;;;4968322;28;20054;-85
2024/02/01 04:08:09;;;;;;;11.20;3.03;;;8.00;99.90;;;;;;4968240;28;20035;-83
2024/02/01 04:10:37;;;;;;;22.02;3.40;;;7.90;99.90;;;;;;4952459;28;20039;-84
2024/02/01 04:13:05;;;;;;;19.75;3.40;;;7.90;99.90;;;;;;4966375;28;20406;-83
2024/02/01 04:15:32;;;;;;;14.85;2.83;;;7.90;99.90;;;;;;4967442;28;20038;-82
2024/02/01 04:18:00;;;;;;;21.98;3.35;;;7.80;99.90;;;;;;4967140;28;20039;-83
2024/02/01 04:20:26;;;;;;;19.15;3.63;;;7.80;99.90;;;;;;4937760;28;20023;-85
2024/02/01 04:22:55;;;;;;;21.83;2.88;;;7.70;99.90;;;;;;4935918;28;20798;-84
2024/02/01 04:25:23;;;;;;;20.40;2.75;;;7.60;99.90;;;;;;4966446;28;20038;-82
2024/02/01 04:27:54;;;;;;;22.17;3.17;;;7.40;99.90;;;;;;4982773;28;20050;-84
2024/02/01 04:30:23;;;;;;;15.18;2.05;;;7.40;99.90;;;;;;4935912;28;20035;-83
2024/02/01 04:32:52;;;;;;;20.02;2.60;;;7.30;99.90;;;;;;4965584;28;20043;-83
2024/02/01 04:35:19;;;;;;;23.60;3.78;;;7.30;99.90;;;;;;4964248;28;20031;-83
2024/02/01 04:37:52;;;;;;;18.20;2.25;;;7.20;99.90;;;;;;4948461;28;20604;-82
2024/02/01 04:40:20;;;;;;;20.17;2.28;;;7.10;99.90;;;;;;4967145;28;20042;-83
2024/02/01 04:42:51;;;;;;;26.65;3.08;;;6.90;99.90;;;;;;4950946;28;20039;-83
2024/02/01 04:45:18;;;;;;;23.95;3.30;;;6.90;99.90;;;;;;4965114;28;20058;-80
2024/02/01 04:47:45;;;;;;;19.58;1.98;;;6.80;99.90;;;;;;4983351;28;20047;-80
2024/02/01 04:50:11;;;;;;;16.80;2.22;;;6.70;99.90;;;;;;4934863;28;20523;-82
2024/02/01 04:52:37;;;;;;;16.10;1.83;;;6.60;99.90;;;;;;4920144;29;20062;-83
2024/02/01 04:55:05;;;;;;;22.30;2.58;;;6.50;99.90;;;;;;4948583;28;20043;-81
2024/02/01 04:57:31;;;;;;;15.45;1.77;;;6.40;99.90;;;;;;4964525;28;20055;-82
2024/02/01 04:59:58;;;;;;;20.17;2.78;;;6.30;99.90;;;;;;4966633;28;20474;-82
2024/02/01 05:02:24;;;;;;;13.48;2.00;;;6.30;99.90;;;;;;4951543;28;20035;-82
2024/02/01 05:04:50;;;;;;;16.98;1.67;;;6.20;99.90;;;;;;4951521;28;20479;-84
2024/02/01 05:07:17;;;;;;;20.20;2.80;;;6.10;99.90;;;;;;4967250;28;20390;-83
2024/02/01 05:09:43;;;;;;;14.02;2.33;;;6.00;99.90;;;;;;4936149;28;20627;-83
2024/02/01 05:12:10;;;;;;;15.27;1.90;;;5.90;99.90;;;;;;4949867;28;20050;-82
2024/02/01 05:14:36;;;;;;;12.18;1.13;;;5.80;99.90;;;;;;4950477;28;20483;-83
2024/02/01 05:17:03;;;;;;;12.57;1.73;;;5.70;99.90;;;;;;4965519;28;20042;-81
2024/02/01 05:19:30;;;;;;;17.00;2.20;;;5.70;99.90;;;;;;4951353;28;20050;-84
2024/02/01 05:21:56;;;;;;;12.30;1.00;;;5.60;99.90;;;;;;4966618;28;20479;-81
2024/02/01 05:24:23;;;;;;;11.00;1.25;;;5.60;99.90;;;;;;4962054;28;20509;-84
2024/02/01 05:26:51;;;;;;;10.00;1.52;;;5.50;99.90;;;;;;4935067;28;20034;-81
2024/02/01 05:29:18;;;;;;;14.63;1.95;;;5.40;99.90;;;;;;4947173;28;20039;-83
2024/02/01 05:31:49;;;;;;;11.20;2.17;;;5.30;99.90;;;;;;4967324;28;20051;-83
2024/02/01 05:34:18;;;;;;;13.52;2.22;;;5.30;99.90;;;;;;4949813;28;20026;-82
2024/02/01 05:36:48;;;;;;;11.07;1.25;;;5.20;99.90;;;;;;4950223;28;20051;-82
2024/02/01 05:39:24;;;;;;;8.40;0.77;;;5.10;99.90;;;;;;4951498;28;20038;-82
2024/02/01 05:41:56;;;;;;;10.65;1.35;;;5.00;99.90;;;;;;4948191;28;20048;-83
2024/02/01 05:44:23;;;;;;;11.65;1.17;;;4.90;99.90;;;;;;4952379;28;20043;-80
2024/02/01 05:46:55;;;;;;;17.40;1.65;;;4.90;99.90;;;;;;4932769;28;20038;-83
2024/02/01 05:49:23;;;;;;;10.35;0.95;;;4.90;99.90;;;;;;4966960;28;20048;-84
2024/02/01 05:51:52;;;;;;;11.00;1.00;;;4.80;99.90;;;;;;4950167;28;20248;-82
2024/02/01 05:54:20;;;;;;;5.05;0.75;;;4.80;99.90;;;;;;4969434;28;20806;-84
2024/02/01 05:56:48;;;;;;;9.40;1.00;;;4.70;99.90;;;;;;4967810;28;20039;-81
2024/02/01 05:59:16;;;;;;;13.60;1.40;;;4.60;99.90;;;;;;4966471;28;20046;-81
2024/02/01 06:01:44;;;;;;;9.73;0.93;;;4.60;99.90;;;;;;4950195;28;20414;-81
2024/02/01 06:04:11;;;;;;;12.90;1.27;;;4.50;99.90;;;;;;4965177;28;20039;-81
2024/02/01 06:06:41;;;;;;;20.92;1.75;;;4.50;99.90;;;;;;4948571;28;20051;-84
2024/02/01 06:09:14;;;;;;;11.65;1.42;;;4.40;99.90;;;;;;4951254;28;20054;-85
2024/02/01 06:11:45;;;;;;;11.73;1.20;;;4.40;99.90;;;;;;4949612;28;20047;-85
2024/02/01 06:14:14;;;;;;;8.68;1.17;;;4.30;99.90;;;;;;4947394;28;20394;-84
2024/02/01 06:16:45;;;;;;;6.50;1.10;;;4.30;99.90;;;;;;4929471;28;20050;-84
2024/02/01 06:19:11;;;;;;;13.25;1.15;;;4.20;99.90;;;;;;4946154;28;20495;-85
2024/02/01 06:21:38;;;;;;;14.77;1.92;;;4.20;99.90;;;;;;4961146;28;20047;-82
2024/02/01 06:24:05;;;;;;;7.60;1.02;;;4.20;99.90;;;;;;4946668;28;20036;-84
2024/02/01 06:26:31;;;;;;;10.90;1.55;;;4.20;99.90;;;;;;4948071;28;20041;-84
2024/02/01 06:29:07;;;;;;;12.13;1.25;;;4.20;99.90;;;;;;4930253;28;20031;-84
2024/02/01 06:31:40;;;;;;;21.05;2.13;;;4.10;99.90;;;;;;4930091;28;20487;-84
2024/02/01 06:34:12;;;;;;;13.10;1.42;;;4.10;99.90;;;;;;4932703;28;20042;-83
2024/02/01 06:36:40;;;;;;;11.05;1.45;;;4.10;99.90;;;;;;4949181;28;20055;-83
2024/02/01 06:39:09;;;;;;;11.52;1.52;;;4.10;99.90;;;;;;4964148;28;20035;-82
2024/02/01 06:42:02;;;;;;;15.98;2.60;;;4.00;99.90;;;;;;4962227;28;20119;-83
2024/02/01 06:44:28;;;;;;;12.83;1.67;;;4.00;99.90;;;;;;4946689;28;20035;-81
2024/02/01 06:54:50;;;;;;;15.13;1.42;;;3.90;99.90;;;;;;4963155;28;20498;-85
2024/02/01 06:57:22;;;;;;;22.08;2.40;;;3.80;99.90;;;;;;4947622;28;20513;-83
2024/02/01 07:05:25;;;;;;;12.32;1.38;;;3.70;99.90;;;;;;4945841;28;20209;-83
2024/02/01 07:08:01;;;;;;;10.75;1.10;;;3.60;99.90;;;;;;4978897;28;20047;-81
2024/02/01 07:11:14;;;;;;;17.70;2.05;;;3.60;99.90;;;;;;4979536;28;20505;-81
2024/02/01 07:16:13;;;;;;;9.73;1.30;;;3.50;99.90;;;;;;4946035;28;20042;-84
2024/02/01 07:18:43;;;;;;;25.63;2.42;;;3.50;99.90;;;;;;4949422;28;20038;-84
2024/02/01 07:21:29;;;;;;;16.98;1.60;;;3.40;99.90;;;;;;4933866;28;20054;-84
2024/02/01 07:24:17;;;;;;;14.70;1.45;;;3.40;99.90;;;;;;4948420;28;20044;-83
2024/02/01 07:26:54;;;;;;;13.15;1.60;;;3.40;99.90;;;;;;4964991;28;20118;-87
2024/02/01 07:57:36;;;;;;;19.35;1.90;;;3.40;99.90;;;;;;4936124;28;20043;-87
2024/02/01 07:59:38;;;;;;;19.67;1.63;;;3.70;99.90;;;;;;4951462;28;20264;-86
2024/02/01 08:02:23;;;;;;;16.17;2.08;;;3.70;99.90;;;;;;4968131;28;20031;-86
2024/02/01 08:07:44;;;;;;;17.02;1.48;;;3.80;99.90;;;;;;4965194;28;20039;-82
2024/02/01 08:10:11;;;;;;;19.58;1.65;;;3.90;99.90;;;;;;4967073;28;20050;-84
2024/02/01 08:12:37;;;;;;;13.80;1.42;;;3.90;99.90;;;;;;4933924;28;20043;-89
2024/02/01 08:15:04;;;;;;;14.43;1.70;;;4.00;99.90;;;;;;4951350;28;20035;-89
2024/02/01 08:17:31;;;;;;;9.95;1.58;;;4.00;99.90;;;;;;4952630;28;20035;-81
2024/02/01 08:19:57;;;;;;;17.67;1.80;;;4.10;99.90;;;;;;4936896;28;20027;-82
2024/02/01 08:22:23;;;;;;;12.07;1.33;;;4.20;99.90;;;;;;4967743;28;20054;-91
2024/02/01 08:24:54;;;;;;;14.13;1.60;;;4.20;99.90;;;;;;4953768;28;20413;-89
2024/02/01 08:27:20;;;;;;;13.90;1.75;;;4.20;99.90;;;;;;4937548;28;20043;-94
2024/02/01 08:29:47;;;;;;;21.58;1.63;;;4.30;99.90;;;;;;4953890;28;20039;-88
2024/02/01 08:32:19;;;;;;;18.10;2.25;;;4.40;99.90;;;;;;4956972;28;20046;-89
2024/02/01 08:34:45;;;;;;;16.85;2.08;;;4.50;99.90;;;;;;4952032;28;20031;-88
2024/02/01 08:37:12;;;;;;;21.75;2.38;;;4.50;99.90;;;;;;4937328;28;20063;-83
2024/02/01 08:39:45;;;;;;;25.65;2.05;;;4.60;99.90;;;;;;4950088;28;20039;-91
2024/02/01 08:42:12;;;;;;;;;;;4.60;99.90;;;;;;4969845;28;20048;-90
2024/02/01 08:44:38;;;;;;;22.13;3.03;;;4.60;99.90;;;;;;4938120;28;20417;-93
2024/02/01 08:47:04;;;;;;;18.40;2.50;;;4.70;99.90;;;;;;4938771;28;20058;-80
2024/02/01 08:49:38;;;;;;;19.83;2.65;;;4.80;99.90;;;;;;4936016;28;20412;-93
2024/02/01 08:52:05;;;;;;;24.63;2.67;;;4.80;99.90;;;;;;4968796;28;20514;-84
2024/02/01 08:54:31;;;;;;;16.63;2.38;;;4.90;99.90;;;;;;4971459;28;20031;-87
2024/02/01 08:56:58;;;;;;;23.63;2.83;;;4.90;99.90;;;;;;4963576;28;20050;-83
2024/02/01 08:59:24;;;;;;;27.45;3.15;;;5.00;99.90;;;;;;4964177;28;20486;-86
2024/02/01 09:01:52;;;;;;;25.90;3.00;;;5.10;99.90;;;;;;4945431;28;20042;-87
2024/02/01 09:04:19;;;;;;;32.83;3.60;;;5.20;99.90;;;;;;4940357;28;20116;-88
2024/02/01 09:06:53;;;;;;;20.88;2.70;;;5.20;99.90;;;;;;4970274;28;20032;-90
2024/02/01 09:09:28;;;;;;;26.00;4.25;;;5.30;99.90;;;;;;4936396;28;20031;-91
2024/02/01 09:11:55;;;;;;;26.88;3.28;;;5.40;99.90;;;;;;4984208;28;20035;-90
2024/02/01 09:14:22;;;;;;;27.45;3.70;;;5.40;99.90;;;;;;4952490;28;20043;-96
2024/02/01 09:16:48;;;;;;;29.05;3.65;;;5.50;99.90;;;;;;4972116;28;20043;-88
2024/02/01 09:19:14;;;;;;;20.17;2.85;;;5.50;99.90;;;;;;4954354;28;20023;-94
2024/02/01 09:21:41;;;;;;;25.23;2.78;;;5.60;99.90;;;;;;4966361;28;20046;-85
2024/02/01 09:24:07;;;;;;;33.13;3.40;;;5.60;99.90;;;;;;4971452;28;20039;-85
2024/02/01 09:26:33;;;;;;;22.45;2.70;;;5.70;99.90;;;;;;4935485;28;20039;-87
2024/02/01 09:29:10;;;;;;;21.48;3.13;;;5.70;99.90;;;;;;4938064;28;20035;-91
2024/02/01 09:31:39;;;;;;;20.20;3.15;;;5.70;99.90;;;;;;4951501;28;20043;-88
2024/02/01 09:34:08;;;;;;;20.98;2.90;;;5.80;99.90;;;;;;4967827;28;20046;-86
2024/02/01 09:36:35;;;;;;;24.33;3.33;;;5.80;99.90;;;;;;4966607;28;20413;-86
2024/02/01 09:39:02;;;;;;;17.65;2.80;;;5.90;99.90;;;;;;4935637;28;20035;-82
2024/02/01 09:41:30;;;;;;;34.85;4.60;;;6.00;99.90;;;;;;4965113;28;20054;-84
2024/02/01 09:43:57;;;;;;;25.80;2.80;;;6.00;99.90;;;;;;4933799;28;20398;-84
2024/02/01 09:46:25;;;;;;;22.83;3.53;;;6.10;99.90;;;;;;4965872;28;20039;-83
2024/02/01 09:48:54;;;;;;;21.63;3.40;;;6.20;99.90;;;;;;4933280;28;20043;-82
2024/02/01 09:51:22;;;;;;;36.55;4.25;;;6.20;99.90;;;;;;4966255;28;20027;-84
2024/02/01 09:53:49;;;;;;;30.27;3.40;;;6.30;99.90;;;;;;4951455;28;20050;-86
2024/02/01 09:56:16;;;;;;;36.05;3.72;;;6.30;99.90;;;;;;4949090;28;20043;-85
2024/02/01 09:58:44;;;;;;;26.05;3.25;;;6.40;99.90;;;;;;4978697;28;20047;-85
2024/02/01 10:01:11;;;;;;;28.85;3.95;;;6.50;99.90;;;;;;4965316;28;20035;-90
2024/02/01 10:03:42;;;;;;;29.45;3.00;;;6.50;99.90;;;;;;4970319;28;20449;-92
2024/02/01 10:06:09;;;;;;;29.45;4.85;;;6.60;99.90;;;;;;4948218;28;20731;-84
2024/02/01 10:08:36;;;;;;;23.38;3.45;;;6.70;99.90;;;;;;4966752;28;20042;-86
2024/02/01 10:11:04;;;;;;;31.42;4.80;;;6.80;99.90;;;;;;4951157;28;20483;-85
2024/02/01 10:13:34;;;;;;;29.92;4.18;;;7.00;99.90;;;;;;4967423;28;20039;-89
2024/02/01 10:16:00;;;;;;;23.38;3.35;;;7.30;99.90;;;;;;4965628;28;20038;-90
2024/02/01 10:18:27;;;;;;;29.65;4.40;;;7.60;99.90;;;;;;4952386;28;20343;-90
2024/02/01 10:20:58;;;;;;;21.17;3.03;;;7.80;99.90;;;;;;4936824;28;20426;-92
2024/02/01 10:23:25;;;;;;;35.28;4.18;;;8.00;99.90;;;;;;4966960;28;20043;-90
2024/02/01 10:25:56;;;;;;;27.30;3.97;;;8.20;99.90;;;;;;4968896;28;20043;-89
2024/02/01 10:28:26;;;;;;;26.73;3.95;;;8.40;99.90;;;;;;4968620;28;20039;-85
2024/02/01 10:30:52;;;;;;;21.80;3.78;;;8.60;99.90;;;;;;4976027;28;20039;-85
2024/02/01 10:33:25;;;;;;;22.95;3.33;;;8.80;99.90;;;;;;4975379;28;20051;-86
2024/02/01 10:35:53;;;;;;;20.48;3.40;;;9.10;99.90;;;;;;4975464;28;20042;-86
2024/02/01 10:38:21;;;;;;;18.15;2.60;;;9.30;99.90;;;;;;4995968;28;20038;-91
2024/02/01 10:40:52;;;;;;;20.88;2.95;;;9.50;99.90;;;;;;4969130;28;20039;-91
2024/02/01 10:43:25;;;;;;;17.77;3.22;;;9.70;99.90;;;;;;4953235;28;20043;-86
2024/02/01 10:46:06;;;;;;;33.15;5.53;;;9.90;99.90;;;;;;4956736;28;20037;-89
2024/02/01 10:48:46;;;;;;;21.42;3.58;;;10.10;99.90;;;;;;4969669;28;20043;-83
2024/02/01 10:51:14;;;;;;;22.17;3.97;;;10.20;99.90;;;;;;4948875;28;20123;-83
2024/02/01 10:53:43;;;;;;;23.10;3.95;;;10.30;99.90;;;;;;4936324;28;20039;-84
2024/02/01 10:56:14;;;;;;;21.60;3.60;;;10.40;99.90;;;;;;4945962;28;20410;-85
2024/02/01 10:58:51;;;;;;;20.67;3.72;;;10.40;99.90;;;;;;4964721;28;20051;-84
2024/02/01 11:01:24;;;;;;;14.15;2.80;;;10.10;99.90;;;;;;4950919;28;20043;-85
2024/02/01 11:03:53;;;;;;;28.50;4.72;;;9.80;99.90;;;;;;4938959;28;20142;-88
2024/02/01 11:06:20;;;;;;;20.10;3.45;;;9.40;99.90;;;;;;4938237;28;20999;-83
2024/02/01 11:08:47;;;;;;;31.58;3.40;;;9.20;99.90;;;;;;4954494;28;20047;-86
2024/02/01 11:11:16;;;;;;;32.10;4.38;;;9.00;99.90;;;;;;4971979;28;20051;-90
2024/02/01 11:13:48;;;;;;;32.92;4.30;;;8.90;99.90;;;;;;4979694;28;20039;-94
2024/02/01 11:16:16;;;;;;;16.92;2.88;;;8.80;99.90;;;;;;4979920;28;20043;-89
2024/02/01 11:18:54;;;;;;;24.95;4.05;;;8.70;99.90;;;;;;4998197;28;20031;-87
2024/02/01 11:21:28;;;;;;;21.95;4.53;;;8.60;99.90;;;;;;4963132;28;20043;-92
2024/02/01 11:24:07;;;;;;;32.33;5.65;;;8.60;99.90;;;;;;4981639;28;20039;-91
2024/02/01 11:26:40;;;;;;;33.78;5.07;;;8.60;99.90;;;;;;4982958;28;20035;-88
2024/02/01 11:29:12;;;;;;;26.27;3.75;;;8.60;99.90;;;;;;4948665;28;20039;-87
2024/02/01 11:31:45;;;;;;;37.00;5.85;;;8.60;99.90;;;;;;4965144;28;20048;-87
2024/02/01 11:34:15;;;;;;;22.30;4.07;;;8.70;99.90;;;;;;4967783;28;20043;-82
2024/02/01 11:36:44;;;;;;;25.67;3.67;;;8.80;99.90;;;;;;4965749;28;20132;-89
2024/02/01 11:39:13;;;;;;;25.05;4.20;;;8.80;99.90;;;;;;4982770;28;20039;-88
2024/02/01 11:41:46;;;;;;;30.20;3.88;;;8.80;99.90;;;;;;4983932;28;20087;-85
2024/02/01 11:44:13;;;;;;;36.78;4.38;;;8.80;99.90;;;;;;4969346;28;20023;-94
2024/02/01 11:46:47;;;;;;;30.58;4.63;;;8.80;99.90;;;;;;4952635;28;20050;-84
2024/02/01 11:49:16;;;;;;;;;;;8.90;99.90;;;;;;4983089;28;20042;-83
2024/02/01 11:51:44;;;;;;;25.05;3.50;;;8.90;99.90;;;;;;4978492;28;19921;-80
2024/02/01 11:54:11;;;;;;;27.70;4.53;;;8.80;99.90;;;;;;4981095;28;20034;-93
2024/02/01 11:56:39;;;;;;;22.17;3.63;;;8.80;99.90;;;;;;4963687;28;20050;-92
2024/02/01 11:59:06;;;;;;;22.45;3.13;;;8.80;99.90;;;;;;4992789;28;20391;-91
2024/02/01 12:01:33;;;;;;;22.50;2.78;;;8.90;99.90;;;;;;4945837;28;20115;-94
2024/02/01 12:04:00;;;;;;;27.40;3.55;;;8.90;99.90;;;;;;4978860;28;20034;-89
2024/02/01 12:06:26;;;;;;;23.10;3.25;;;8.90;99.90;;;;;;4946917;28;20031;-88
2024/02/01 12:08:54;;;;;;;27.17;4.03;;;8.90;99.90;;;;;;4976327;28;20039;-88
2024/02/01 12:11:23;;;;;;;23.85;3.50;;;8.80;99.90;;;;;;4955704;28;20036;-91
2024/02/01 12:13:51;;;;;;;25.67;4.50;;;8.80;99.90;;;;;;4969376;28;20054;-88
2024/02/01 12:16:25;;;;;;;23.08;3.55;;;8.80;99.90;;;;;;4967568;28;20553;-85
2024/02/01 12:18:53;;;;;;;28.27;4.75;;;8.80;99.90;;;;;;4955034;28;20042;-85
2024/02/01 12:21:26;;;;;;;22.67;3.60;;;8.90;99.90;;;;;;4971371;28;20043;-95
2024/02/01 12:23:56;;;;;;;26.00;3.60;;;8.80;99.90;;;;;;4985621;28;20430;-82
2024/02/01 12:26:25;;;;;;;21.92;2.92;;;8.80;99.90;;;;;;4938431;28;20482;-90
2024/02/01 12:28:53;;;;;;;22.13;3.47;;;8.70;99.90;;;;;;4987344;28;20039;-91
2024/02/01 12:31:21;;;;;;;13.05;2.63;;;8.70;99.90;;;;;;4938273;28;20036;-89
2024/02/01 12:33:49;;;;;;;20.33;3.40;;;8.70;99.90;;;;;;4984288;28;20043;-88
2024/02/01 12:36:16;;;;;;;24.30;3.42;;;8.80;99.90;;;;;;4953375;28;20031;-93
2024/02/01 12:38:48;;;;;;;24.60;3.92;;;8.80;99.90;;;;;;4970117;28;20046;-94
2024/02/01 12:41:14;;;;;;;24.48;3.97;;;8.80;99.90;;;;;;4953171;28;20031;-86
2024/02/01 12:43:42;;;;;;;22.40;3.85;;;8.80;99.90;;;;;;4967557;28;20035;-92
2024/02/01 12:46:12;;;;;;;27.40;3.95;;;8.80;99.90;;;;;;4954568;28;20058;-91
2024/02/01 12:48:39;;;;;;;24.20;3.40;;;8.90;99.90;;;;;;4954789;28;20070;-87
2024/02/01 12:51:07;;;;;;;29.52;3.15;;;9.00;99.90;;;;;;4970827;28;20522;-87
2024/02/01 12:53:38;;;;;;;21.40;3.75;;;9.10;99.90;;;;;;4939874;28;20058;-91
2024/02/01 12:56:05;;;;;;;19.58;3.60;;;9.20;99.90;;;;;;4951202;28;20235;-87
2024/02/01 12:58:39;;;;;;;16.92;3.35;;;9.30;99.90;;;;;;4953757;28;20046;-91
2024/02/01 13:01:07;;;;;;;23.48;3.75;;;9.30;99.90;;;;;;4953644;28;20039;-88
2024/02/01 13:03:34;;;;;;;23.23;3.60;;;9.40;99.90;;;;;;4938571;28;20031;-90
2024/02/01 13:06:00;;;;;;;31.25;4.93;;;9.40;99.90;;;;;;4937515;28;20046;-86
2024/02/01 13:08:26;;;;;;;20.02;2.83;;;9.30;99.90;;;;;;4983128;28;20051;-82
2024/02/01 13:10:53;;;;;;;16.75;2.75;;;9.20;99.90;;;;;;4938459;28;20039;-91
2024/02/01 13:13:20;;;;;;;22.45;3.97;;;9.20;99.90;;;;;;4933822;28;20407;-92
2024/02/01 13:15:46;;;;;;;23.95;4.18;;;9.20;99.90;;;;;;4965522;28;20541;-89
2024/02/01 13:18:13;;;;;;;24.83;3.92;;;9.10;99.90;;;;;;4984764;28;20031;-92
2024/02/01 13:20:41;;;;;;;18.40;2.92;;;9.00;99.90;;;;;;4935909;28;20047;-92
2024/02/01 13:23:10;;;;;;;17.63;2.63;;;8.80;99.90;;;;;;4935665;28;20077;-91
2024/02/01 13:25:38;;;;;;;29.83;3.53;;;8.70;99.90;;;;;;4982857;28;20043;-94
2024/02/01 13:28:08;;;;;;;21.88;3.63;;;8.50;99.90;;;;;;4935204;28;20042;-94
2024/02/01 13:30:34;;;;;;;23.63;3.58;;;8.40;99.90;;;;;;4935626;28;20035;-91
2024/02/01 13:33:04;;;;;;;20.65;3.28;;;8.30;99.90;;;;;;4953507;28;20043;-90
2024/02/01 13:35:35;;;;;;;15.32;3.03;;;8.30;99.90;;;;;;4966628;28;20042;-93
2024/02/01 13:38:11;;;;;;;14.70;2.97;;;8.30;99.90;;;;;;4967509;28;20043;-87